Terminal Aerodrome Forecast
Issued by NWS Charleston, WV

Current Version | Previous Version | Graphics & Text | Print | Product List | Glossary On
Versions: 1 2 3 4 5 6 7 8 9 10 11 12 13 14 15 16 17 18 19 20 21 22 23 24 25 26 27
000
FTUS41 KRLX 011800 AAA
TAFHTS
TAF AMD
KHTS 011835Z 0119/0218 23008KT P6SM BKN040
     FM011945 23010G35KT 2SM TSRA SCT025CB BKN035
     FM012030 20005KT P6SM BKN035
     FM020700 21004KT 6SM BR BKN050
     FM021300 21005KT P6SM BKN045
     FM021400 22007KT P6SM VCTS BKN040CB=

USA.gov is the U.S. government's official web portal to all federal, state and local government web resources and services.